Terminal Aerodrome Forecast
Issued by NWS

Home | Current Version | Previous Version | Text Only | Print | Product List | Glossary On
Versions: 1 2 3 4 5 6 7 8 9 10 11 12 13 14 15 16 17 18 19 20
000
FTUS44 KLZK 272300
TAFLIT
TAF
KLIT 272337Z 2800/2824 35008KT P6SM SCT250
     FM280200 02005KT P6SM OVC110
     FM280800 12004KT P6SM SCT050 OVC100
     FM281300 12008KT P6SM SCT025 OVC050 PROB30 2813/2819 5SM -SHRA
      OVC025
     FM281900 12008KT P6SM OVC050
      TEMPO 2819/2823 5SM -RA OVC025=

USA.gov is the U.S. government's official web portal to all federal, state and local government web resources and services.